Impacts METAR Board
IDs:

KFXE - Ft Lauderdale/Execut, FL, US

Updated at: 2000 UTC 21 Sep 2021
Potential Impact None Slight Moderate High
Time 21/08Z 21/09Z 21/10Z 21/11Z 21/12Z 21/13Z 21/14Z 21/15Z 21/16Z 21/17Z 21/18Z 21/19Z 21/20Z
Temp79 79 76 77 77 77 77 77 78 79 80 80 80
Dewpt77 76 73 75 75 77 77 77 77 79 78 78 78
Altim29.97 29.96 29.98 29.98 30.01 30.03 30.03 30.05 30.05 30.04 30.01 30.01 30.00
VIS10 10 6 10 8 8 10 8 10 10 10 10 10
CIG-- -- 55 -- 29 110 -- 110 100 37 100 110 100
CoverFEWFEWOVCSCTBKNBKNFEWBKNOVCOVCBKNBKNBKN
FltCatVFRVFRVFRVFRMVFRVFRVFRVFRVFRVFRVFRVFRVFR
WX----+RA BR--RA-RA-RA-RA-RA-RA-RA-RA--
WDir0320210090207003305002030
WSpd0 3 3 0 14 8 3 0 3 3 0 4 7
WGst-- -- -- -- 19 -- -- -- -- -- -- -- --
Raw hourly METARs
KFXE 210753Z AUTO 00000KT 10SM FEW021 26/25 A2997 RMK AO2 SLP152 T02610250 TSNO
KFXE 210853Z AUTO 32003KT 10SM FEW018 26/24 A2996 RMK AO2 SLP149 T02610244 56011 TSNO
KFXE 211000Z AUTO 21003KT 6SM +RA BR SCT020 BKN055 OVC070 24/23 A2998 RMK AO2 P0004 T02440228 TSNO
KFXE 211053Z 00000KT 10SM SCT055 25/24 A2998 RMK AO2 RAE51 SLP154 P0005 T02500239
KFXE 211202Z 09014G19KT 8SM RA SCT023 BKN029 25/24 A3001 RMK AO2 P0010 T02500239
KFXE 211253Z 02008KT 8SM -RA SCT025 BKN110 25/25 A3003 RMK AO2 SLP171 P0047 T02500250
KFXE 211353Z 07003KT 10SM -RA FEW120 25/25 A3003 RMK AO2 SLP172 P0001 T02500250
KFXE 211453Z 00000KT 8SM -RA SCT025 BKN110 25/25 A3005 RMK AO2 SLP177 P0001 60049 T02500250 51012
KFXE 211553Z 33003KT 10SM -RA FEW080 BKN100 OVC120 26/25 A3005 RMK AO2 SLP178 P0004 T02560250
KFXE 211653Z 05003KT 10SM -RA BKN037 BKN055 OVC070 26/26 A3004 RMK AO2 SLP176 P0003 T02610261
KFXE 211753Z 00000KT 10SM -RA FEW050 BKN100 BKN130 27/26 A3001 RMK AO2 SLP165 P0000 60056 T02670256 10267 20244 58012
KFXE 211853Z 02004KT 10SM -RA FEW055 BKN110 BKN120 27/26 A3001 RMK AO2 SLP163 P0000 T02670256
KFXE 211953Z 03007KT 10SM SCT016 BKN100 27/26 A3000 RMK AO2 RAE49 SLP160 P0000 T02670256



Page loaded:  20:32 UTC  |   01:32 PM Pacific  |   02:32 PM Mountain  |   03:32 PM Central  |   04:32 PM Eastern

 

ADVISORIES

FORECASTS

FORECASTS

OBSERVATIONS

USER TOOLS

ABOUT US